sensor_id;sensor_type;location;lat;lon;timestamp;temperature;humidity
58993;DHT22;44782;0.000;0.000;2023-12-20T00:04:14;18.50;56.10
58993;DHT22;44782;0.000;0.000;2023-12-20T00:06:30;18.50;56.10
58993;DHT22;44782;0.000;0.000;2023-12-20T00:08:46;18.40;56.10
58993;DHT22;44782;0.000;0.000;2023-12-20T00:11:02;18.40;56.20
58993;DHT22;44782;0.000;0.000;2023-12-20T00:13:17;18.30;55.90
58993;DHT22;44782;0.000;0.000;2023-12-20T00:15:33;18.50;56.30
58993;DHT22;44782;0.000;0.000;2023-12-20T00:17:49;18.50;56.00
58993;DHT22;44782;0.000;0.000;2023-12-20T00:20:05;18.40;56.60
58993;DHT22;44782;0.000;0.000;2023-12-20T00:22:21;18.30;56.90
58993;DHT22;44782;0.000;0.000;2023-12-20T00:24:37;18.30;56.60
58993;DHT22;44782;0.000;0.000;2023-12-20T00:26:52;18.30;56.90
58993;DHT22;44782;0.000;0.000;2023-12-20T00:29:08;18.20;57.00
58993;DHT22;44782;0.000;0.000;2023-12-20T00:31:24;18.10;56.80
58993;DHT22;44782;0.000;0.000;2023-12-20T00:33:39;18.20;57.50
58993;DHT22;44782;0.000;0.000;2023-12-20T00:35:58;18.20;57.40
58993;DHT22;44782;0.000;0.000;2023-12-20T00:38:14;18.20;57.50
58993;DHT22;44782;0.000;0.000;2023-12-20T00:40:30;18.20;57.50
58993;DHT22;44782;0.000;0.000;2023-12-20T00:42:46;18.10;57.60
58993;DHT22;44782;0.000;0.000;2023-12-20T00:45:02;18.10;58.20
58993;DHT22;44782;0.000;0.000;2023-12-20T00:47:20;18.10;59.20
58993;DHT22;44782;0.000;0.000;2023-12-20T00:49:35;18.10;59.70
58993;DHT22;44782;0.000;0.000;2023-12-20T00:51:51;18.20;61.80
58993;DHT22;44782;0.000;0.000;2023-12-20T00:54:08;16.30;53.20
58993;DHT22;44782;0.000;0.000;2023-12-20T00:56:24;18.00;54.10
58993;DHT22;44782;0.000;0.000;2023-12-20T00:58:40;18.10;54.20
58993;DHT22;44782;0.000;0.000;2023-12-20T01:00:55;18.00;54.30
58993;DHT22;44782;0.000;0.000;2023-12-20T01:03:11;18.00;54.10
58993;DHT22;44782;0.000;0.000;2023-12-20T01:05:27;18.00;54.10
58993;DHT22;44782;0.000;0.000;2023-12-20T01:07:42;18.00;54.10
58993;DHT22;44782;0.000;0.000;2023-12-20T01:09:58;18.00;54.10
58993;DHT22;44782;0.000;0.000;2023-12-20T01:12:14;18.00;54.10
58993;DHT22;44782;0.000;0.000;2023-12-20T01:14:30;17.90;54.00
58993;DHT22;44782;0.000;0.000;2023-12-20T01:16:45;17.90;54.00
58993;DHT22;44782;0.000;0.000;2023-12-20T01:19:01;17.90;54.00
58993;DHT22;44782;0.000;0.000;2023-12-20T01:21:17;17.90;54.00
58993;DHT22;44782;0.000;0.000;2023-12-20T01:23:32;17.90;54.00
58993;DHT22;44782;0.000;0.000;2023-12-20T01:25:48;17.90;54.00
58993;DHT22;44782;0.000;0.000;2023-12-20T01:28:04;17.90;54.00
58993;DHT22;44782;0.000;0.000;2023-12-20T01:30:20;17.90;54.00
58993;DHT22;44782;0.000;0.000;2023-12-20T01:32:35;17.90;54.10
58993;DHT22;44782;0.000;0.000;2023-12-20T01:34:51;17.80;54.00
58993;DHT22;44782;0.000;0.000;2023-12-20T01:37:07;17.80;54.10
58993;DHT22;44782;0.000;0.000;2023-12-20T01:39:23;17.80;54.10
58993;DHT22;44782;0.000;0.000;2023-12-20T01:41:38;17.80;54.10
58993;DHT22;44782;0.000;0.000;2023-12-20T01:43:54;17.80;54.10
58993;DHT22;44782;0.000;0.000;2023-12-20T01:46:10;17.70;54.10
58993;DHT22;44782;0.000;0.000;2023-12-20T01:48:28;17.70;54.10
58993;DHT22;44782;0.000;0.000;2023-12-20T01:50:45;17.70;54.10
58993;DHT22;44782;0.000;0.000;2023-12-20T01:53:01;17.70;54.10
58993;DHT22;44782;0.000;0.000;2023-12-20T01:55:19;17.70;54.10
58993;DHT22;44782;0.000;0.000;2023-12-20T01:57:35;17.70;54.10
58993;DHT22;44782;0.000;0.000;2023-12-20T01:59:50;17.60;54.10
58993;DHT22;44782;0.000;0.000;2023-12-20T02:02:07;17.70;54.10
58993;DHT22;44782;0.000;0.000;2023-12-20T02:04:24;17.60;54.10
58993;DHT22;44782;0.000;0.000;2023-12-20T02:06:40;17.60;54.10
58993;DHT22;44782;0.000;0.000;2023-12-20T02:08:56;17.60;54.20
58993;DHT22;44782;0.000;0.000;2023-12-20T02:11:12;17.60;54.20
58993;DHT22;44782;0.000;0.000;2023-12-20T02:13:28;17.60;54.10
58993;DHT22;44782;0.000;0.000;2023-12-20T02:15:44;17.60;54.20
58993;DHT22;44782;0.000;0.000;2023-12-20T02:18:00;17.60;54.20
58993;DHT22;44782;0.000;0.000;2023-12-20T02:20:15;17.60;54.20
58993;DHT22;44782;0.000;0.000;2023-12-20T02:22:31;17.60;54.20
58993;DHT22;44782;0.000;0.000;2023-12-20T02:24:47;17.50;54.30
58993;DHT22;44782;0.000;0.000;2023-12-20T02:27:03;17.50;55.10
58993;DHT22;44782;0.000;0.000;2023-12-20T02:29:20;17.50;54.50
58993;DHT22;44782;0.000;0.000;2023-12-20T02:31:36;17.50;54.50
58993;DHT22;44782;0.000;0.000;2023-12-20T02:33:52;17.50;54.50
58993;DHT22;44782;0.000;0.000;2023-12-20T02:36:08;17.50;54.80
58993;DHT22;44782;0.000;0.000;2023-12-20T02:38:23;17.50;55.00
58993;DHT22;44782;0.000;0.000;2023-12-20T02:40:39;17.40;55.40
58993;DHT22;44782;0.000;0.000;2023-12-20T02:42:55;17.50;56.10
58993;DHT22;44782;0.000;0.000;2023-12-20T02:45:10;17.50;56.70
58993;DHT22;44782;0.000;0.000;2023-12-20T02:47:26;17.50;58.40
58993;DHT22;44782;0.000;0.000;2023-12-20T02:49:42;17.30;62.20
58993;DHT22;44782;0.000;0.000;2023-12-20T02:51:58;17.30;56.40
58993;DHT22;44782;0.000;0.000;2023-12-20T02:54:14;17.30;57.50
58993;DHT22;44782;0.000;0.000;2023-12-20T02:56:29;17.40;58.70
58993;DHT22;44782;0.000;0.000;2023-12-20T02:58:45;17.30;59.80
58993;DHT22;44782;0.000;0.000;2023-12-20T03:01:01;17.30;61.20
58993;DHT22;44782;0.000;0.000;2023-12-20T03:03:17;17.30;64.10
58993;DHT22;44782;0.000;0.000;2023-12-20T03:05:33;16.80;81.00
58993;DHT22;44782;0.000;0.000;2023-12-20T03:07:48;17.60;76.70
58993;DHT22;44782;0.000;0.000;2023-12-20T03:10:05;17.40;71.30
58993;DHT22;44782;0.000;0.000;2023-12-20T03:12:23;17.30;73.40
58993;DHT22;44782;0.000;0.000;2023-12-20T03:14:39;17.30;81.10
58993;DHT22;44782;0.000;0.000;2023-12-20T03:16:54;17.30;79.60
58993;DHT22;44782;0.000;0.000;2023-12-20T03:19:10;17.30;76.80
58993;DHT22;44782;0.000;0.000;2023-12-20T03:21:26;17.20;76.00
58993;DHT22;44782;0.000;0.000;2023-12-20T03:23:42;17.20;78.60
58993;DHT22;44782;0.000;0.000;2023-12-20T03:25:59;17.30;77.00
58993;DHT22;44782;0.000;0.000;2023-12-20T03:28:15;17.20;80.30
58993;DHT22;44782;0.000;0.000;2023-12-20T03:30:31;17.20;79.70
58993;DHT22;44782;0.000;0.000;2023-12-20T03:32:47;17.20;75.50
58993;DHT22;44782;0.000;0.000;2023-12-20T03:35:03;17.30;75.00
58993;DHT22;44782;0.000;0.000;2023-12-20T03:37:19;17.30;76.00
58993;DHT22;44782;0.000;0.000;2023-12-20T03:39:35;17.30;76.70
58993;DHT22;44782;0.000;0.000;2023-12-20T03:41:50;17.10;76.70
58993;DHT22;44782;0.000;0.000;2023-12-20T03:44:06;17.30;76.30
58993;DHT22;44782;0.000;0.000;2023-12-20T03:46:22;17.20;75.40
58993;DHT22;44782;0.000;0.000;2023-12-20T03:48:37;17.30;76.00
58993;DHT22;44782;0.000;0.000;2023-12-20T03:50:53;17.10;78.20
58993;DHT22;44782;0.000;0.000;2023-12-20T03:53:09;17.00;75.80
58993;DHT22;44782;0.000;0.000;2023-12-20T03:55:25;17.10;75.30
58993;DHT22;44782;0.000;0.000;2023-12-20T03:57:41;17.00;75.00
58993;DHT22;44782;0.000;0.000;2023-12-20T03:59:57;17.20;75.00
58993;DHT22;44782;0.000;0.000;2023-12-20T04:02:12;17.10;75.00
58993;DHT22;44782;0.000;0.000;2023-12-20T04:04:28;17.20;75.20
58993;DHT22;44782;0.000;0.000;2023-12-20T04:06:44;17.00;75.10
58993;DHT22;44782;0.000;0.000;2023-12-20T04:09:00;17.00;75.30
58993;DHT22;44782;0.000;0.000;2023-12-20T04:11:15;17.00;75.50
58993;DHT22;44782;0.000;0.000;2023-12-20T04:13:31;17.00;75.80
58993;DHT22;44782;0.000;0.000;2023-12-20T04:15:47;17.10;76.10
58993;DHT22;44782;0.000;0.000;2023-12-20T04:18:03;17.10;76.20
58993;DHT22;44782;0.000;0.000;2023-12-20T04:20:19;16.90;76.30
58993;DHT22;44782;0.000;0.000;2023-12-20T04:22:34;16.90;76.50
58993;DHT22;44782;0.000;0.000;2023-12-20T04:24:50;16.90;76.80
58993;DHT22;44782;0.000;0.000;2023-12-20T04:27:06;17.00;77.00
58993;DHT22;44782;0.000;0.000;2023-12-20T04:29:22;17.00;77.20
58993;DHT22;44782;0.000;0.000;2023-12-20T04:31:37;16.90;77.30
58993;DHT22;44782;0.000;0.000;2023-12-20T04:33:53;16.90;77.80
58993;DHT22;44782;0.000;0.000;2023-12-20T04:36:08;17.00;78.20
58993;DHT22;44782;0.000;0.000;2023-12-20T04:38:24;17.00;83.00
58993;DHT22;44782;0.000;0.000;2023-12-20T04:40:40;17.00;76.90
58993;DHT22;44782;0.000;0.000;2023-12-20T04:42:56;16.90;76.40
58993;DHT22;44782;0.000;0.000;2023-12-20T04:45:12;16.80;77.50
58993;DHT22;44782;0.000;0.000;2023-12-20T04:47:29;16.90;81.50
58993;DHT22;44782;0.000;0.000;2023-12-20T04:49:44;16.80;74.60
58993;DHT22;44782;0.000;0.000;2023-12-20T04:52:00;16.80;75.10
58993;DHT22;44782;0.000;0.000;2023-12-20T04:54:15;16.90;75.40
58993;DHT22;44782;0.000;0.000;2023-12-20T04:56:31;16.80;76.00
58993;DHT22;44782;0.000;0.000;2023-12-20T04:58:47;16.80;75.90
58993;DHT22;44782;0.000;0.000;2023-12-20T05:01:04;16.90;76.30
58993;DHT22;44782;0.000;0.000;2023-12-20T05:03:20;16.70;76.90
58993;DHT22;44782;0.000;0.000;2023-12-20T05:05:37;16.80;79.10
58993;DHT22;44782;0.000;0.000;2023-12-20T05:07:53;16.90;80.80
58993;DHT22;44782;0.000;0.000;2023-12-20T05:10:09;16.80;87.40
58993;DHT22;44782;0.000;0.000;2023-12-20T05:12:25;16.70;78.80
58993;DHT22;44782;0.000;0.000;2023-12-20T05:14:40;16.80;77.20
58993;DHT22;44782;0.000;0.000;2023-12-20T05:16:56;16.80;77.50
58993;DHT22;44782;0.000;0.000;2023-12-20T05:19:12;16.80;78.10
58993;DHT22;44782;0.000;0.000;2023-12-20T05:21:27;16.70;78.40
58993;DHT22;44782;0.000;0.000;2023-12-20T05:23:43;16.80;79.10
58993;DHT22;44782;0.000;0.000;2023-12-20T05:25:59;16.80;79.60
58993;DHT22;44782;0.000;0.000;2023-12-20T05:28:15;16.80;80.40
58993;DHT22;44782;0.000;0.000;2023-12-20T05:37:19;16.80;53.10
58993;DHT22;44782;0.000;0.000;2023-12-20T05:39:34;16.80;54.10
58993;DHT22;44782;0.000;0.000;2023-12-20T05:41:50;16.70;54.80
58993;DHT22;44782;0.000;0.000;2023-12-20T05:44:05;16.70;54.20
58993;DHT22;44782;0.000;0.000;2023-12-20T05:46:21;16.60;54.20
58993;DHT22;44782;0.000;0.000;2023-12-20T05:48:37;16.60;54.20
58993;DHT22;44782;0.000;0.000;2023-12-20T05:50:52;16.60;54.20
58993;DHT22;44782;0.000;0.000;2023-12-20T05:53:08;16.60;54.30
58993;DHT22;44782;0.000;0.000;2023-12-20T05:55:24;16.60;54.20
58993;DHT22;44782;0.000;0.000;2023-12-20T05:57:39;16.60;54.20
58993;DHT22;44782;0.000;0.000;2023-12-20T05:59:55;16.60;54.10
58993;DHT22;44782;0.000;0.000;2023-12-20T06:02:11;16.60;54.10
58993;DHT22;44782;0.000;0.000;2023-12-20T06:04:26;16.60;54.00
58993;DHT22;44782;0.000;0.000;2023-12-20T06:06:43;16.70;54.00
58993;DHT22;44782;0.000;0.000;2023-12-20T06:08:59;16.70;53.90
58993;DHT22;44782;0.000;0.000;2023-12-20T06:11:14;16.70;53.90
58993;DHT22;44782;0.000;0.000;2023-12-20T06:13:30;16.80;53.90
58993;DHT22;44782;0.000;0.000;2023-12-20T06:15:46;16.80;53.80
58993;DHT22;44782;0.000;0.000;2023-12-20T06:18:02;16.90;53.80
58993;DHT22;44782;0.000;0.000;2023-12-20T06:20:17;16.90;53.80
58993;DHT22;44782;0.000;0.000;2023-12-20T06:22:35;16.90;53.70
58993;DHT22;44782;0.000;0.000;2023-12-20T06:24:51;17.00;53.70
58993;DHT22;44782;0.000;0.000;2023-12-20T06:27:06;17.10;53.60
58993;DHT22;44782;0.000;0.000;2023-12-20T06:29:22;17.10;53.50
58993;DHT22;44782;0.000;0.000;2023-12-20T06:31:38;17.20;53.50
58993;DHT22;44782;0.000;0.000;2023-12-20T06:33:53;17.20;53.40
58993;DHT22;44782;0.000;0.000;2023-12-20T06:36:13;17.20;53.20
58993;DHT22;44782;0.000;0.000;2023-12-20T06:38:29;17.20;53.10
58993;DHT22;44782;0.000;0.000;2023-12-20T06:40:44;17.20;53.00
58993;DHT22;44782;0.000;0.000;2023-12-20T06:43:01;17.20;52.90
58993;DHT22;44782;0.000;0.000;2023-12-20T06:45:16;17.20;52.90
58993;DHT22;44782;0.000;0.000;2023-12-20T06:47:32;17.20;52.90
58993;DHT22;44782;0.000;0.000;2023-12-20T06:49:47;17.10;52.90
58993;DHT22;44782;0.000;0.000;2023-12-20T06:52:03;17.10;52.90
58993;DHT22;44782;0.000;0.000;2023-12-20T06:54:19;17.10;52.80
58993;DHT22;44782;0.000;0.000;2023-12-20T06:56:35;17.10;52.90
58993;DHT22;44782;0.000;0.000;2023-12-20T06:58:50;17.10;52.90
58993;DHT22;44782;0.000;0.000;2023-12-20T07:01:13;17.10;52.90
58993;DHT22;44782;0.000;0.000;2023-12-20T07:03:29;17.10;52.70
58993;DHT22;44782;0.000;0.000;2023-12-20T07:05:45;17.10;52.90
58993;DHT22;44782;0.000;0.000;2023-12-20T07:08:01;17.10;53.00
58993;DHT22;44782;0.000;0.000;2023-12-20T07:10:17;17.10;52.90
58993;DHT22;44782;0.000;0.000;2023-12-20T07:12:35;17.10;53.00
58993;DHT22;44782;0.000;0.000;2023-12-20T07:14:51;17.00;52.90
58993;DHT22;44782;0.000;0.000;2023-12-20T07:17:07;17.00;52.90
58993;DHT22;44782;0.000;0.000;2023-12-20T07:19:26;17.00;52.90
58993;DHT22;44782;0.000;0.000;2023-12-20T07:21:42;17.00;53.00
58993;DHT22;44782;0.000;0.000;2023-12-20T07:23:58;17.00;53.00
58993;DHT22;44782;0.000;0.000;2023-12-20T07:26:13;17.00;53.00
58993;DHT22;44782;0.000;0.000;2023-12-20T07:28:29;17.00;53.00
58993;DHT22;44782;0.000;0.000;2023-12-20T07:30:44;17.00;53.00
58993;DHT22;44782;0.000;0.000;2023-12-20T07:33:00;16.90;53.00
58993;DHT22;44782;0.000;0.000;2023-12-20T07:35:16;16.90;53.10
58993;DHT22;44782;0.000;0.000;2023-12-20T07:37:32;16.90;53.00
58993;DHT22;44782;0.000;0.000;2023-12-20T07:39:47;16.90;53.10
58993;DHT22;44782;0.000;0.000;2023-12-20T07:42:03;16.90;53.10
58993;DHT22;44782;0.000;0.000;2023-12-20T07:44:19;16.90;53.10
58993;DHT22;44782;0.000;0.000;2023-12-20T07:46:34;16.90;53.10
58993;DHT22;44782;0.000;0.000;2023-12-20T07:48:50;16.80;53.10
58993;DHT22;44782;0.000;0.000;2023-12-20T07:51:06;16.80;53.10
58993;DHT22;44782;0.000;0.000;2023-12-20T07:53:23;16.80;53.10
58993;DHT22;44782;0.000;0.000;2023-12-20T07:55:39;16.80;53.20
58993;DHT22;44782;0.000;0.000;2023-12-20T07:57:55;16.80;53.10
58993;DHT22;44782;0.000;0.000;2023-12-20T08:00:11;16.70;53.10
58993;DHT22;44782;0.000;0.000;2023-12-20T08:02:26;16.80;53.20
58993;DHT22;44782;0.000;0.000;2023-12-20T08:04:42;16.70;53.20
58993;DHT22;44782;0.000;0.000;2023-12-20T08:06:58;16.70;53.30
58993;DHT22;44782;0.000;0.000;2023-12-20T08:09:13;16.70;53.30
58993;DHT22;44782;0.000;0.000;2023-12-20T08:11:29;16.70;53.30
58993;DHT22;44782;0.000;0.000;2023-12-20T08:13:45;16.70;53.40
58993;DHT22;44782;0.000;0.000;2023-12-20T08:16:00;16.70;53.50
58993;DHT22;44782;0.000;0.000;2023-12-20T08:18:18;16.70;53.40
58993;DHT22;44782;0.000;0.000;2023-12-20T08:20:34;16.70;53.40
58993;DHT22;44782;0.000;0.000;2023-12-20T08:22:49;16.70;53.50
58993;DHT22;44782;0.000;0.000;2023-12-20T08:25:05;16.70;54.20
58993;DHT22;44782;0.000;0.000;2023-12-20T08:27:21;16.70;53.50
58993;DHT22;44782;0.000;0.000;2023-12-20T08:29:36;16.70;53.50
58993;DHT22;44782;0.000;0.000;2023-12-20T08:31:53;16.60;53.40
58993;DHT22;44782;0.000;0.000;2023-12-20T08:34:12;16.60;53.40
58993;DHT22;44782;0.000;0.000;2023-12-20T08:36:29;16.60;53.50
58993;DHT22;44782;0.000;0.000;2023-12-20T08:38:45;16.60;53.50
58993;DHT22;44782;0.000;0.000;2023-12-20T08:41:01;16.60;53.40
58993;DHT22;44782;0.000;0.000;2023-12-20T08:43:18;16.60;53.50
58993;DHT22;44782;0.000;0.000;2023-12-20T08:45:33;16.50;53.40
58993;DHT22;44782;0.000;0.000;2023-12-20T08:47:49;16.60;53.40
58993;DHT22;44782;0.000;0.000;2023-12-20T08:50:05;16.60;53.40
58993;DHT22;44782;0.000;0.000;2023-12-20T08:52:22;16.60;53.30
58993;DHT22;44782;0.000;0.000;2023-12-20T08:54:38;16.60;53.30
58993;DHT22;44782;0.000;0.000;2023-12-20T08:56:54;16.50;53.10
58993;DHT22;44782;0.000;0.000;2023-12-20T08:59:09;16.50;53.00
58993;DHT22;44782;0.000;0.000;2023-12-20T09:01:25;16.50;52.90
58993;DHT22;44782;0.000;0.000;2023-12-20T09:03:41;16.50;53.10
58993;DHT22;44782;0.000;0.000;2023-12-20T09:05:56;16.50;53.30
58993;DHT22;44782;0.000;0.000;2023-12-20T09:08:12;16.40;53.20
58993;DHT22;44782;0.000;0.000;2023-12-20T09:12:43;16.40;53.20
58993;DHT22;44782;0.000;0.000;2023-12-20T09:14:59;16.50;53.10
58993;DHT22;44782;0.000;0.000;2023-12-20T09:17:17;16.50;53.30
58993;DHT22;44782;0.000;0.000;2023-12-20T09:19:33;16.50;53.50
58993;DHT22;44782;0.000;0.000;2023-12-20T09:21:49;16.60;53.70
58993;DHT22;44782;0.000;0.000;2023-12-20T09:24:04;16.60;53.90
58993;DHT22;44782;0.000;0.000;2023-12-20T09:26:20;16.60;54.00
58993;DHT22;44782;0.000;0.000;2023-12-20T09:28:36;16.70;53.90
58993;DHT22;44782;0.000;0.000;2023-12-20T09:30:52;16.70;53.90
58993;DHT22;44782;0.000;0.000;2023-12-20T09:33:08;16.80;53.90
58993;DHT22;44782;0.000;0.000;2023-12-20T09:35:23;16.90;54.30
58993;DHT22;44782;0.000;0.000;2023-12-20T09:37:39;16.90;54.50
58993;DHT22;44782;0.000;0.000;2023-12-20T09:39:59;17.00;54.50
58993;DHT22;44782;0.000;0.000;2023-12-20T09:42:21;17.10;54.50
58993;DHT22;44782;0.000;0.000;2023-12-20T09:44:39;17.10;54.70
58993;DHT22;44782;0.000;0.000;2023-12-20T09:46:57;17.10;54.70
58993;DHT22;44782;0.000;0.000;2023-12-20T09:49:13;17.20;54.80
58993;DHT22;44782;0.000;0.000;2023-12-20T09:51:30;17.20;54.90
58993;DHT22;44782;0.000;0.000;2023-12-20T09:53:46;17.20;54.90
58993;DHT22;44782;0.000;0.000;2023-12-20T09:56:03;17.20;54.90
58993;DHT22;44782;0.000;0.000;2023-12-20T09:58:19;17.20;54.90
58993;DHT22;44782;0.000;0.000;2023-12-20T10:00:35;17.20;54.80
58993;DHT22;44782;0.000;0.000;2023-12-20T10:02:58;17.30;54.90
58993;DHT22;44782;0.000;0.000;2023-12-20T10:05:16;17.30;55.00
58993;DHT22;44782;0.000;0.000;2023-12-20T10:07:35;17.30;55.00
58993;DHT22;44782;0.000;0.000;2023-12-20T10:09:54;17.30;55.00
58993;DHT22;44782;0.000;0.000;2023-12-20T10:12:10;17.30;54.80
58993;DHT22;44782;0.000;0.000;2023-12-20T10:14:26;17.30;54.60
58993;DHT22;44782;0.000;0.000;2023-12-20T10:16:42;17.30;54.90
58993;DHT22;44782;0.000;0.000;2023-12-20T10:18:59;17.30;54.80
58993;DHT22;44782;0.000;0.000;2023-12-20T10:21:18;17.30;54.80
58993;DHT22;44782;0.000;0.000;2023-12-20T10:23:33;17.30;54.90
58993;DHT22;44782;0.000;0.000;2023-12-20T10:25:59;17.30;54.90
58993;DHT22;44782;0.000;0.000;2023-12-20T10:28:16;17.30;54.90
58993;DHT22;44782;0.000;0.000;2023-12-20T10:30:38;17.30;54.80
58993;DHT22;44782;0.000;0.000;2023-12-20T10:32:54;17.30;54.90
58993;DHT22;44782;0.000;0.000;2023-12-20T10:35:10;17.20;54.70
58993;DHT22;44782;0.000;0.000;2023-12-20T10:37:25;17.20;54.60
58993;DHT22;44782;0.000;0.000;2023-12-20T10:41:56;17.20;54.50
58993;DHT22;44782;0.000;0.000;2023-12-20T10:44:12;17.20;54.50
58993;DHT22;44782;0.000;0.000;2023-12-20T10:46:30;17.20;54.50
58993;DHT22;44782;0.000;0.000;2023-12-20T10:48:46;17.20;54.50
58993;DHT22;44782;0.000;0.000;2023-12-20T10:51:04;17.20;54.40
58993;DHT22;44782;0.000;0.000;2023-12-20T10:53:20;17.20;54.40
58993;DHT22;44782;0.000;0.000;2023-12-20T10:55:36;17.20;54.40
58993;DHT22;44782;0.000;0.000;2023-12-20T10:57:52;17.20;54.40
58993;DHT22;44782;0.000;0.000;2023-12-20T11:00:09;17.10;54.30
58993;DHT22;44782;0.000;0.000;2023-12-20T11:02:29;17.10;54.30
58993;DHT22;44782;0.000;0.000;2023-12-20T11:07:25;17.10;54.10
58993;DHT22;44782;0.000;0.000;2023-12-20T11:09:51;17.20;54.10
58993;DHT22;44782;0.000;0.000;2023-12-20T11:14:54;17.10;54.20
58993;DHT22;44782;0.000;0.000;2023-12-20T11:17:15;17.10;54.40
58993;DHT22;44782;0.000;0.000;2023-12-20T11:19:32;17.00;54.50
58993;DHT22;44782;0.000;0.000;2023-12-20T11:21:48;17.00;54.30
58993;DHT22;44782;0.000;0.000;2023-12-20T11:24:05;17.00;54.40
58993;DHT22;44782;0.000;0.000;2023-12-20T11:26:28;17.00;54.50
58993;DHT22;44782;0.000;0.000;2023-12-20T11:28:44;17.00;54.50
58993;DHT22;44782;0.000;0.000;2023-12-20T11:31:02;17.00;54.70
58993;DHT22;44782;0.000;0.000;2023-12-20T11:33:23;17.00;54.80
58993;DHT22;44782;0.000;0.000;2023-12-20T11:35:39;17.00;54.60
58993;DHT22;44782;0.000;0.000;2023-12-20T11:37:58;17.00;54.80
58993;DHT22;44782;0.000;0.000;2023-12-20T11:40:16;17.00;54.90
58993;DHT22;44782;0.000;0.000;2023-12-20T11:42:39;17.00;55.00
58993;DHT22;44782;0.000;0.000;2023-12-20T11:44:56;17.00;54.90
58993;DHT22;44782;0.000;0.000;2023-12-20T11:47:13;17.00;54.90
58993;DHT22;44782;0.000;0.000;2023-12-20T11:49:29;17.00;54.90
58993;DHT22;44782;0.000;0.000;2023-12-20T11:51:46;17.00;55.00
58993;DHT22;44782;0.000;0.000;2023-12-20T11:54:01;17.00;55.00
58993;DHT22;44782;0.000;0.000;2023-12-20T11:56:17;17.00;55.00
58993;DHT22;44782;0.000;0.000;2023-12-20T11:58:36;17.00;55.00
58993;DHT22;44782;0.000;0.000;2023-12-20T12:00:52;17.00;55.00
58993;DHT22;44782;0.000;0.000;2023-12-20T12:03:08;17.00;54.90
58993;DHT22;44782;0.000;0.000;2023-12-20T12:05:24;17.00;55.00
58993;DHT22;44782;0.000;0.000;2023-12-20T12:07:39;17.00;55.00
58993;DHT22;44782;0.000;0.000;2023-12-20T12:09:55;17.00;55.00
58993;DHT22;44782;0.000;0.000;2023-12-20T12:12:12;17.00;55.00
58993;DHT22;44782;0.000;0.000;2023-12-20T12:14:28;17.00;55.00
58993;DHT22;44782;0.000;0.000;2023-12-20T12:16:43;17.00;55.00
58993;DHT22;44782;0.000;0.000;2023-12-20T12:18:59;16.90;55.00
58993;DHT22;44782;0.000;0.000;2023-12-20T12:21:19;16.90;55.00
58993;DHT22;44782;0.000;0.000;2023-12-20T12:23:36;16.90;55.00
58993;DHT22;44782;0.000;0.000;2023-12-20T12:25:51;16.90;55.20
58993;DHT22;44782;0.000;0.000;2023-12-20T12:28:08;16.90;55.10
58993;DHT22;44782;0.000;0.000;2023-12-20T12:30:26;16.90;55.10
58993;DHT22;44782;0.000;0.000;2023-12-20T12:32:44;16.90;55.10
58993;DHT22;44782;0.000;0.000;2023-12-20T12:35:05;16.90;55.10
58993;DHT22;44782;0.000;0.000;2023-12-20T12:37:22;16.90;55.30
58993;DHT22;44782;0.000;0.000;2023-12-20T12:39:40;16.90;55.40
58993;DHT22;44782;0.000;0.000;2023-12-20T12:41:57;16.90;56.00
58993;DHT22;44782;0.000;0.000;2023-12-20T12:44:12;16.90;55.20
58993;DHT22;44782;0.000;0.000;2023-12-20T12:46:28;16.90;55.20
58993;DHT22;44782;0.000;0.000;2023-12-20T12:48:44;16.90;55.20
58993;DHT22;44782;0.000;0.000;2023-12-20T12:51:00;16.80;55.20
58993;DHT22;44782;0.000;0.000;2023-12-20T12:53:16;16.90;55.20
58993;DHT22;44782;0.000;0.000;2023-12-20T12:55:33;16.90;55.20
58993;DHT22;44782;0.000;0.000;2023-12-20T12:57:49;16.90;55.30
58993;DHT22;44782;0.000;0.000;2023-12-20T13:00:05;16.80;55.30
58993;DHT22;44782;0.000;0.000;2023-12-20T13:02:23;16.80;55.40
58993;DHT22;44782;0.000;0.000;2023-12-20T13:04:40;16.80;55.40
58993;DHT22;44782;0.000;0.000;2023-12-20T13:06:56;16.80;55.40
58993;DHT22;44782;0.000;0.000;2023-12-20T13:09:12;16.80;55.40
58993;DHT22;44782;0.000;0.000;2023-12-20T13:11:28;16.80;55.50
58993;DHT22;44782;0.000;0.000;2023-12-20T13:13:45;16.80;55.50
58993;DHT22;44782;0.000;0.000;2023-12-20T13:16:01;16.70;55.50
58993;DHT22;44782;0.000;0.000;2023-12-20T13:18:18;16.70;55.50
58993;DHT22;44782;0.000;0.000;2023-12-20T13:20:38;16.70;55.50
58993;DHT22;44782;0.000;0.000;2023-12-20T13:22:57;16.70;55.60
58993;DHT22;44782;0.000;0.000;2023-12-20T13:25:14;16.70;55.60
58993;DHT22;44782;0.000;0.000;2023-12-20T13:27:32;16.70;55.60
58993;DHT22;44782;0.000;0.000;2023-12-20T13:29:50;16.70;55.60
58993;DHT22;44782;0.000;0.000;2023-12-20T13:32:07;16.70;55.70
58993;DHT22;44782;0.000;0.000;2023-12-20T13:34:24;16.70;55.70
58993;DHT22;44782;0.000;0.000;2023-12-20T13:36:40;16.70;55.70
58993;DHT22;44782;0.000;0.000;2023-12-20T13:38:57;16.60;55.70
58993;DHT22;44782;0.000;0.000;2023-12-20T13:41:14;16.70;55.70
58993;DHT22;44782;0.000;0.000;2023-12-20T13:43:33;16.60;55.70
58993;DHT22;44782;0.000;0.000;2023-12-20T13:45:51;16.60;55.70
58993;DHT22;44782;0.000;0.000;2023-12-20T13:48:07;16.60;55.70
58993;DHT22;44782;0.000;0.000;2023-12-20T13:50:23;16.60;55.70
58993;DHT22;44782;0.000;0.000;2023-12-20T13:52:39;16.60;56.30
58993;DHT22;44782;0.000;0.000;2023-12-20T13:54:56;16.60;55.80
58993;DHT22;44782;0.000;0.000;2023-12-20T13:57:13;16.60;55.80
58993;DHT22;44782;0.000;0.000;2023-12-20T13:59:33;16.60;56.50
58993;DHT22;44782;0.000;0.000;2023-12-20T14:01:54;16.50;55.70
58993;DHT22;44782;0.000;0.000;2023-12-20T14:04:13;16.50;55.80
58993;DHT22;44782;0.000;0.000;2023-12-20T14:06:28;16.50;55.80
58993;DHT22;44782;0.000;0.000;2023-12-20T14:08:45;16.50;55.70
58993;DHT22;44782;0.000;0.000;2023-12-20T14:11:02;16.50;55.80
58993;DHT22;44782;0.000;0.000;2023-12-20T14:13:18;16.50;55.70
58993;DHT22;44782;0.000;0.000;2023-12-20T14:15:34;16.50;55.80
58993;DHT22;44782;0.000;0.000;2023-12-20T14:17:53;16.50;56.00
58993;DHT22;44782;0.000;0.000;2023-12-20T14:20:10;16.50;55.90
58993;DHT22;44782;0.000;0.000;2023-12-20T14:22:28;16.60;55.60
58993;DHT22;44782;0.000;0.000;2023-12-20T14:24:45;16.60;55.40
58993;DHT22;44782;0.000;0.000;2023-12-20T14:27:02;16.60;55.30
58993;DHT22;44782;0.000;0.000;2023-12-20T14:29:18;16.70;55.30
58993;DHT22;44782;0.000;0.000;2023-12-20T14:31:35;16.70;55.20
58993;DHT22;44782;0.000;0.000;2023-12-20T14:33:52;16.70;55.40
58993;DHT22;44782;0.000;0.000;2023-12-20T14:36:10;16.80;55.70
58993;DHT22;44782;0.000;0.000;2023-12-20T14:38:26;16.90;55.70
58993;DHT22;44782;0.000;0.000;2023-12-20T14:40:42;17.00;55.70
58993;DHT22;44782;0.000;0.000;2023-12-20T14:42:58;17.10;55.80
58993;DHT22;44782;0.000;0.000;2023-12-20T14:45:14;17.10;55.70
58993;DHT22;44782;0.000;0.000;2023-12-20T14:47:31;17.20;55.70
58993;DHT22;44782;0.000;0.000;2023-12-20T14:49:47;17.20;55.60
58993;DHT22;44782;0.000;0.000;2023-12-20T14:52:03;17.30;55.50
58993;DHT22;44782;0.000;0.000;2023-12-20T14:54:19;17.30;55.40